Time;durP1;ratioP1;P1;durP2;ratioP2;P2;SDS_P1;SDS_P2;PMS_P1;PMS_P2;Temp;Humidity;BMP_temperature;BMP_pressure;BME280_temperature;BME280_humidity;BME280_pressure;Samples;Min_cycle;Max_cycle;Signal;HPM_P1;HPM_P2
2021/01/06 06:13:09;;;;;;;31.12;17.85;;;;;;;0.03;78.54;100246.90;1747246;81;21157;-62
2021/01/06 06:16:11;;;;;;;32.85;19.32;;;;;;;0.03;78.40;100240.48;1806666;78;21312;-62
2021/01/06 06:19:07;;;;;;;29.85;16.50;;;;;;;-0.03;78.40;100245.92;1809625;78;21573;-61
2021/01/06 06:21:43;;;;;;;31.35;17.45;;;;;;;-0.05;78.60;100246.01;1811374;78;21285;-62
2021/01/06 06:24:40;;;;;;;33.25;18.57;;;;;;;-0.01;78.64;100250.06;1791529;77;22639;-60
2021/01/06 06:27:40;;;;;;;27.25;16.82;;;;;;;-0.08;78.58;100242.30;1749728;82;22185;-59
2021/01/06 06:30:16;;;;;;;29.95;16.32;;;;;;;-0.14;78.65;100248.19;1753012;79;21186;-61
2021/01/06 06:32:44;;;;;;;34.78;18.90;;;;;;;-0.21;78.79;100241.70;1775096;79;21149;-62
2021/01/06 06:35:27;;;;;;;31.35;18.92;;;;;;;-0.11;78.94;100255.30;1766168;81;21599;-62
2021/01/06 06:38:05;;;;;;;35.88;19.12;;;;;;;-0.11;78.94;100255.30;1767369;81;21173;-62
2021/01/06 06:41:00;;;;;;;32.98;16.82;;;;;;;-0.05;78.80;100257.56;1767154;81;21625;-62
2021/01/06 06:43:36;;;;;;;30.77;16.17;;;;;;;-0.05;78.72;100261.42;1784058;80;21605;-62
2021/01/06 06:46:30;;;;;;;34.50;18.87;;;;;;;-0.07;78.67;100259.81;1765221;79;21158;-60
2021/01/06 06:49:12;;;;;;;32.73;18.55;;;;;;;-0.16;78.71;100248.27;1761750;81;21308;-63
2021/01/06 06:52:04;;;;;;;32.98;17.32;;;;;;;-0.09;78.94;100261.19;1761626;81;21166;-63
2021/01/06 06:55:03;;;;;;;34.03;18.25;;;;;;;-0.03;78.76;100254.91;1765906;79;21316;-60
2021/01/06 06:57:51;;;;;;;35.73;21.77;;;;;;;-0.04;78.67;100255.83;1773864;79;21147;-60
2021/01/06 07:00:23;;;;;;;31.20;18.92;;;;;;;-0.04;78.71;100260.51;1777712;80;21211;-62
2021/01/06 07:03:01;;;;;;;34.15;18.37;;;;;;;-0.04;78.80;100259.22;1777676;80;21603;-61
2021/01/06 07:05:47;;;;;;;31.00;18.60;;;;;;;0.00;78.79;100256.06;1779579;80;21166;-66
2021/01/06 07:08:27;;;;;;;32.83;17.40;;;;;;;0.07;78.65;100257.86;1776297;79;21118;-64
2021/01/06 07:11:40;;;;;;;38.00;21.80;;;;;;;0.12;78.54;100264.86;1762162;80;21312;-62
2021/01/06 07:15:35;;;;;;;35.30;20.95;;;;;;;0.05;78.53;100263.06;1761257;81;21589;-62
2021/01/06 07:18:41;;;;;;;40.00;23.40;;;;;;;0.12;78.63;100261.00;1760042;81;22298;-62
2021/01/06 07:21:22;;;;;;;34.53;17.77;;;;;;;0.16;78.52;100267.20;1752847;81;21148;-62
2021/01/06 07:24:05;;;;;;;29.50;15.72;;;;;;;0.19;78.54;100268.35;1758429;81;21159;-62
2021/01/06 07:26:54;;;;;;;33.58;18.62;;;;;;;0.21;78.46;100269.09;1751875;82;21158;-63
2021/01/06 07:29:24;;;;;;;31.85;20.23;;;;;;;0.23;78.26;100268.55;1744219;82;21732;-61
2021/01/06 07:32:12;;;;;;;38.30;21.68;;;;;;;0.22;78.50;100266.89;1754014;82;21716;-62
2021/01/06 07:34:56;;;;;;;35.28;18.92;;;;;;;0.30;78.51;100263.09;1756121;82;21120;-61
2021/01/06 07:37:46;;;;;;;33.55;18.45;;;;;;;0.42;78.31;100268.89;1753082;82;21178;-61
2021/01/06 07:40:37;;;;;;;34.27;19.23;;;;;;;0.48;77.90;100276.29;1743925;82;21168;-61
2021/01/06 07:43:21;;;;;;;38.13;21.55;;;;;;;0.50;77.90;100278.34;1745409;82;21519;-61
2021/01/06 07:46:21;;;;;;;35.88;19.00;;;;;;;0.46;77.69;100280.23;1743943;81;21101;-62
2021/01/06 07:49:12;;;;;;;31.37;17.05;;;;;;;0.44;77.97;100288.48;1748962;82;21301;-63
2021/01/06 07:51:58;;;;;;;31.95;18.32;;;;;;;0.43;78.01;100282.95;1751325;81;21587;-63
2021/01/06 07:54:42;;;;;;;40.55;22.50;;;;;;;0.40;78.05;100285.69;1742116;82;21170;-62
2021/01/06 07:57:20;;;;;;;40.05;21.33;;;;;;;0.49;78.22;100285.20;1750338;81;21169;-61
2021/01/06 07:59:56;;;;;;;34.18;18.27;;;;;;;0.55;77.79;100286.62;1720175;82;21409;-62
2021/01/06 08:02:37;;;;;;;33.88;17.50;;;;;;;0.58;77.73;100290.80;1752995;81;21210;-64
2021/01/06 08:05:35;;;;;;;35.43;19.42;;;;;;;0.64;77.46;100291.31;1741741;82;21190;-62
2021/01/06 08:08:07;;;;;;;36.68;20.17;;;;;;;0.64;77.46;100291.31;1743864;82;21119;-61
2021/01/06 08:10:38;;;;;;;39.35;19.07;;;;;;;0.50;77.65;100291.20;1759281;81;21605;-62
2021/01/06 08:13:33;;;;;;;36.17;19.73;;;;;;;0.49;77.87;100290.34;1760175;81;21683;-61
2021/01/06 08:16:13;;;;;;;35.23;18.42;;;;;;;0.52;77.86;100298.37;1707727;82;21179;-62
2021/01/06 08:19:18;;;;;;;38.33;19.10;;;;;;;0.52;78.02;100291.48;1752306;82;21613;-61
2021/01/06 08:22:11;;;;;;;37.08;20.25;;;;;;;0.57;77.98;100291.25;1740722;81;21286;-64
2021/01/06 08:24:49;;;;;;;38.17;20.25;;;;;;;0.54;77.98;100290.11;1741742;81;21582;-61
2021/01/06 08:27:36;;;;;;;35.05;18.40;;;;;;;0.53;78.27;100287.17;1719719;82;21124;-66
2021/01/06 08:30:29;;;;;;;36.58;19.45;;;;;;;0.59;78.07;100293.73;1729910;82;21180;-63
2021/01/06 08:34:02;;;;;;;40.67;20.50;;;;;;;0.58;78.00;100282.62;1733753;82;21159;-63
2021/01/06 08:37:13;;;;;;;38.25;21.20;;;;;;;0.53;78.37;100279.45;1731166;81;21287;-64
2021/01/06 08:39:55;;;;;;;45.10;20.65;;;;;;;0.53;78.37;100279.45;1742901;82;21570;-62
2021/01/06 08:42:27;;;;;;;35.58;18.32;;;;;;;0.66;78.37;100293.79;1729901;82;21307;-64
2021/01/06 08:45:34;;;;;;;38.15;19.90;;;;;;;0.79;78.32;100294.80;1681860;83;21550;-63
2021/01/06 08:48:15;;;;;;;40.52;21.02;;;;;;;0.84;77.90;100295.85;1726588;82;21546;-61
2021/01/06 08:50:47;;;;;;;39.13;20.37;;;;;;;0.88;78.03;100297.36;1726327;81;21139;-62
2021/01/06 08:53:20;;;;;;;43.38;19.70;;;;;;;0.83;77.90;100295.48;1745717;82;21611;-62
2021/01/06 08:55:56;;;;;;;40.27;19.10;;;;;;;0.74;77.96;100299.35;1699727;82;21154;-64
2021/01/06 08:58:26;;;;;;;37.00;19.23;;;;;;;0.74;77.97;100300.18;1727284;81;21395;-58
2021/01/06 09:00:59;;;;;;;36.25;19.98;;;;;;;0.67;78.03;100298.84;1722111;82;21562;-64
2021/01/06 09:03:47;;;;;;;38.78;21.75;;;;;;;0.60;78.19;100295.39;1701166;84;21191;-60
2021/01/06 09:06:19;;;;;;;40.43;19.07;;;;;;;0.54;78.50;100290.94;1720006;82;21186;-64
2021/01/06 09:09:33;;;;;;;36.25;18.52;;;;;;;0.57;78.80;100286.57;1694270;83;21143;-64
2021/01/06 09:12:34;;;;;;;39.73;20.30;;;;;;;0.61;78.77;100279.88;1716748;82;21183;-64
2021/01/06 09:15:04;;;;;;;35.38;19.62;;;;;;;0.62;78.80;100274.28;1743416;82;21191;-63
2021/01/06 09:17:40;;;;;;;43.75;22.35;;;;;;;0.66;78.73;100280.93;1714153;81;21191;-63
2021/01/06 09:20:12;;;;;;;41.28;19.52;;;;;;;0.60;78.74;100282.54;1742861;81;21556;-61
2021/01/06 09:22:43;;;;;;;41.40;20.62;;;;;;;0.64;78.90;100271.19;1739715;81;21249;-65
2021/01/06 09:25:17;;;;;;;36.42;21.07;;;;;;;0.71;79.03;100272.52;1696955;83;21146;-65
2021/01/06 09:27:50;;;;;;;44.75;23.47;;;;;;;0.85;78.88;100275.19;1724784;82;21194;-65
2021/01/06 09:30:24;;;;;;;45.10;24.72;;;;;;;0.89;78.63;100281.01;1740653;81;21187;-63
2021/01/06 09:32:54;;;;;;;41.00;21.42;;;;;;;0.87;78.51;100277.67;1720979;81;21154;-63
2021/01/06 09:35:25;;;;;;;42.60;20.80;;;;;;;0.88;78.49;100275.03;1689953;83;21186;-64
2021/01/06 09:38:37;;;;;;;41.08;20.50;;;;;;;0.84;78.34;100267.56;1738942;82;21146;-65
2021/01/06 09:41:09;;;;;;;50.38;26.70;;;;;;;0.91;78.49;100267.59;1747675;82;21665;-63
2021/01/06 09:43:51;;;;;;;42.00;23.25;;;;;;;0.91;78.44;100259.88;1747733;82;22201;-63
2021/01/06 09:47:04;;;;;;;43.65;23.30;;;;;;;0.97;78.36;100253.94;1730170;81;21562;-64
2021/01/06 09:49:37;;;;;;;51.73;24.30;;;;;;;0.97;78.11;100250.55;1717056;83;21782;-64
2021/01/06 09:52:20;;;;;;;45.45;24.47;;;;;;;0.89;78.12;100251.42;1725725;82;21765;-62
2021/01/06 09:54:50;;;;;;;47.90;23.87;;;;;;;0.87;78.23;100248.94;1728265;82;21601;-64
2021/01/06 09:57:18;;;;;;;52.15;26.90;;;;;;;0.88;78.25;100250.59;1691979;83;21516;-64
2021/01/06 09:59:51;;;;;;;49.77;26.42;;;;;;;0.87;78.25;100242.51;1738333;82;21166;-62
2021/01/06 10:02:37;;;;;;;66.42;36.00;;;;;;;0.87;78.27;100247.66;1729977;82;22375;-64
2021/01/06 10:05:22;;;;;;;60.90;35.90;;;;;;;0.85;78.37;100256.34;1745273;82;21211;-65
2021/01/06 10:08:01;;;;;;;42.30;24.02;;;;;;;0.86;78.46;100255.43;1747324;82;21159;-65
2021/01/06 10:10:33;;;;;;;51.55;28.60;;;;;;;0.86;78.31;100254.14;1746947;81;21206;-63
2021/01/06 10:13:32;;;;;;;42.98;23.92;;;;;;;0.83;78.58;100262.05;1712141;84;21637;-64
2021/01/06 10:16:20;;;;;;;58.17;33.20;;;;;;;0.77;78.65;100254.19;1743606;82;21190;-66
2021/01/06 10:19:06;;;;;;;58.23;30.60;;;;;;;0.77;78.85;100252.91;1750577;82;22192;-67
2021/01/06 10:21:57;;;;;;;48.87;28.70;;;;;;;0.74;78.92;100258.20;1716414;82;22384;-62
2021/01/06 10:24:56;;;;;;;55.33;31.20;;;;;;;0.76;79.16;100253.83;1695705;82;21174;-65
2021/01/06 10:27:38;;;;;;;46.50;26.37;;;;;;;0.85;79.32;100248.17;1714693;82;21214;-62
2021/01/06 10:30:17;;;;;;;48.05;24.85;;;;;;;1.07;79.17;100252.54;1722426;82;21158;-63
2021/01/06 10:33:06;;;;;;;48.38;23.42;;;;;;;1.12;78.62;100257.44;1743224;82;21138;-65
2021/01/06 10:35:46;;;;;;;44.85;21.87;;;;;;;1.15;78.44;100257.27;1742266;82;21628;-62
2021/01/06 10:38:48;;;;;;;44.50;23.32;;;;;;;1.09;78.25;100252.45;1748482;82;21178;-62
2021/01/06 10:41:27;;;;;;;46.85;25.88;;;;;;;1.02;78.28;100248.55;1698620;82;21638;-64
2021/01/06 10:44:02;;;;;;;46.30;25.48;;;;;;;1.02;78.57;100248.09;1723402;82;21125;-64
2021/01/06 10:46:51;;;;;;;43.42;21.95;;;;;;;1.05;78.38;100244.05;1705246;82;21525;-62
2021/01/06 10:49:25;;;;;;;44.45;21.48;;;;;;;1.05;78.46;100245.80;1726817;81;21162;-64
2021/01/06 10:52:03;;;;;;;48.70;23.22;;;;;;;1.03;78.45;100249.75;1719105;82;21537;-65
2021/01/06 10:54:42;;;;;;;47.00;23.67;;;;;;;1.00;78.52;100245.25;1737190;82;21138;-65
2021/01/06 10:57:41;;;;;;;50.20;23.12;;;;;;;1.10;78.70;100243.81;1724465;82;21522;-64
2021/01/06 11:00:25;;;;;;;43.35;21.48;;;;;;;1.13;78.36;100242.83;1722191;83;21387;-64
2021/01/06 11:03:48;;;;;;;38.08;19.32;;;;;;;1.10;78.28;100236.09;1723425;83;21161;-64
2021/01/06 11:07:18;;;;;;;45.25;22.50;;;;;;;1.00;78.26;100230.63;1674426;85;21421;-64
2021/01/06 11:10:34;;;;;;;43.33;21.45;;;;;;;0.96;78.68;100223.98;1830693;77;22588;-64
2021/01/06 11:14:09;;;;;;;45.48;23.32;;;;;;;0.92;78.78;100217.80;1760583;81;21184;-62
2021/01/06 11:17:28;;;;;;;42.73;22.65;;;;;;;0.95;78.78;100218.47;1759362;81;21164;-63
2021/01/06 11:20:39;;;;;;;39.50;20.85;;;;;;;0.96;78.76;100219.30;1761397;81;21188;-65
2021/01/06 11:23:35;;;;;;;42.17;21.35;;;;;;;1.03;78.86;100224.02;1804921;78;21106;-65
2021/01/06 11:26:42;;;;;;;39.73;19.70;;;;;;;1.03;78.86;100224.02;1757179;81;21213;-64
2021/01/06 11:29:55;;;;;;;38.42;20.30;;;;;;;1.11;78.70;100226.16;1717091;81;21730;-63
